LNG Imo — ZCDT6 — position and weather

sailwx.info

Track history (hours):
 
Tides and Currents Weather Stations Pressure Air Temp Water Temp Dewpoint Dewpoint Depression Visibility Wind Speed Wind Dir Waves Ship Positions

LNG Imo

Last reported at 2016-Jul-19 09:33 UTC. Time now 2016-Jul-29 15:59 UTC.
Position N 28°06' W 015°21'.
Warning: this ship's position is 10 days out of date.

Length 288 m; draft 11.3 m.

Type: Ship (hazmat cat D). MMSI: 310565000.

Date/timePositionNaut miles runAvg speedWind from/ knotsBaromVisibWave heightAir tempDewpointWater temp
2016-Jul-19 09:33N 28°06' W 015°21'183 9.0
2016-Jul-18 13:21N 30°58' W 014°09'810.0
2016-Jul-18 12:33N 31°06' W 014°06'1010.0
2016-Jul-18 11:33N 31°15' W 014°03'14911.2
2016-Jul-17 22:13N 33°39' W 013°17'4311.6
2016-Jul-17 18:32N 34°20' W 013°04'2812.0
2016-Jul-17 16:13N 34°47' W 012°55'812.3
2016-Jul-17 15:33N 34°55' W 012°52'2512.0
2016-Jul-17 13:27N 35°19' W 012°45'1112.0
2016-Jul-17 12:33N 35°30' W 012°41'1211.8
2016-Jul-17 11:30N 35°42' W 012°37'1212.1
2016-Jul-17 10:33N 35°53' W 012°34'1512.2
2016-Jul-17 09:21N 36°07' W 012°29'1012.0
2016-Jul-17 08:33N 36°16' W 012°26'1312.1
2016-Jul-17 07:30N 36°28' W 012°22'1212.1
2016-Jul-17 06:32N 36°40' W 012°18'3511.8
2016-Jul-17 03:31N 37°14' W 012°06'1212.4
2016-Jul-17 02:33N 37°25' W 012°02'1312.8
2016-Jul-17 01:32N 37°38' W 011°58'1812.5
2016-Jul-17 00:07N 37°55' W 011°52'1112.7
2016-Jul-16 23:16N 38°06' W 011°49'912.7
2016-Jul-16 22:33N 38°14' W 011°46'1312.5
2016-Jul-16 21:32N 38°27' W 011°41'1412.2
2016-Jul-16 20:22N 38°40' W 011°36'1012.1
2016-Jul-16 19:33N 38°50' W 011°32'1212.4
2016-Jul-16 18:33N 39°01' W 011°27'1312.5
2016-Jul-16 17:33N 39°14' W 011°24'1212.6
2016-Jul-16 16:33N 39°26' W 011°21'1212.1
2016-Jul-16 15:33N 39°38' W 011°17'1211.8
2016-Jul-16 14:33N 39°49' W 011°12'1212.2
2016-Jul-16 13:33N 40°01' W 011°08'1212.0
2016-Jul-16 12:33N 40°12' W 011°04'1211.7
2016-Jul-16 11:33N 40°24' W 011°00'1212.5
2016-Jul-16 10:33N 40°36' W 010°56'2612.3
2016-Jul-16 08:26N 41°01' W 010°47'1612.5
2016-Jul-16 07:11N 41°16' W 010°42'812.3
2016-Jul-16 06:33N 41°23' W 010°39'42211.1
2016-Jul-14 16:33N 46°28' W 003°53'2914.3
2016-Jul-14 14:33N 46°44' W 003°19'1818.0
2016-Jul-14 13:33N 46°54' W 002°57'1616.5
2016-Jul-14 12:33N 47°02' W 002°36'1111.1
2016-Jul-14 11:32N 47°08' W 002°21'9 9.4
2016-Jul-14 10:33N 47°15' W 002°13'5 4.5
2016-Jul-14 09:31N 47°18' W 002°08'0 0.0
2016-Jul-14 03:25N 47°18' W 002°08'0 0.0
2016-Jul-14 02:07N 47°18' W 002°08'0 0.0
2016-Jul-13 23:25N 47°18' W 002°08'0 0.0
2016-Jul-13 22:25N 47°18' W 002°08'0 0.0
2016-Jul-13 21:25N 47°18' W 002°08'9 0.5
2016-Jul-13 04:33N 47°12' W 002°17'8 8.2
2016-Jul-13 03:33N 47°05' W 002°25'8 7.5
2016-Jul-13 02:33N 47°01' W 002°34'1515.1
2016-Jul-13 01:33N 46°53' W 002°53'1616.0
2016-Jul-13 00:33N 46°43' W 003°11'59016.7
2016-Jul-11 13:11N 38°49' W 011°10'1117.6
2016-Jul-11 12:33N 38°39' W 011°14'1817.8
2016-Jul-11 11:32N 38°21' W 011°20'1817.7
2016-Jul-11 10:33N 38°04' W 011°26'2117.3
2016-Jul-11 09:22N 37°45' W 011°34'1517.3
2016-Jul-11 08:30N 37°30' W 011°39'1717.6
2016-Jul-11 07:33N 37°14' W 011°45'1817.8
2016-Jul-11 06:33N 36°57' W 011°51'35517.4
2016-Jul-10 10:08N 31°16' W 013°50'1118.1
2016-Jul-10 09:32N 31°06' W 013°54'1818.3
2016-Jul-10 08:33N 30°48' W 013°60'1818.2
2016-Jul-10 07:33N 30°31' W 014°05'1818.2
2016-Jul-10 06:33N 30°13' W 014°11'1817.9
2016-Jul-10 05:33N 29°56' W 014°17'1817.9
2016-Jul-10 04:34N 29°39' W 014°23'1817.8
2016-Jul-10 03:32N 29°21' W 014°29'1717.8
2016-Jul-10 02:34N 29°05' W 014°34'1817.8
2016-Jul-10 01:33N 28°48' W 014°40'1817.8
2016-Jul-10 00:33N 28°30' W 014°45'1717.2
2016-Jul-09 23:34N 28°14' W 014°52'1717.3
2016-Jul-09 22:34N 27°58' W 014°58'1717.0
2016-Jul-09 21:33N 27°42' W 015°05'  
Track history (hours):
 
Tides and Currents Weather Stations Pressure Air Temp Water Temp Dewpoint Dewpoint Depression Visibility Wind Speed Wind Dir Waves Ship Positions

LNG Imo

Last reported at 2016-Jul-19 09:33 UTC. Time now 2016-Jul-29 15:59 UTC.
Position N 28°06' W 015°21'.
Warning: this ship's position is 10 days out of date.

Length 288 m; draft 11.3 m.

Type: Ship (hazmat cat D). MMSI: 310565000.

Date/timePositionNaut miles runAvg speedWind from/ knotsBaromVisibWave heightAir tempDewpointWater temp
2016-Jul-19 09:33N 28°06' W 015°21'183 9.0
2016-Jul-18 13:21N 30°58' W 014°09'810.0
2016-Jul-18 12:33N 31°06' W 014°06'1010.0
2016-Jul-18 11:33N 31°15' W 014°03'14911.2
2016-Jul-17 22:13N 33°39' W 013°17'4311.6
2016-Jul-17 18:32N 34°20' W 013°04'2812.0
2016-Jul-17 16:13N 34°47' W 012°55'812.3
2016-Jul-17 15:33N 34°55' W 012°52'2512.0
2016-Jul-17 13:27N 35°19' W 012°45'1112.0
2016-Jul-17 12:33N 35°30' W 012°41'1211.8
2016-Jul-17 11:30N 35°42' W 012°37'1212.1
2016-Jul-17 10:33N 35°53' W 012°34'1512.2
2016-Jul-17 09:21N 36°07' W 012°29'1012.0
2016-Jul-17 08:33N 36°16' W 012°26'1312.1
2016-Jul-17 07:30N 36°28' W 012°22'1212.1
2016-Jul-17 06:32N 36°40' W 012°18'3511.8
2016-Jul-17 03:31N 37°14' W 012°06'1212.4
2016-Jul-17 02:33N 37°25' W 012°02'1312.8
2016-Jul-17 01:32N 37°38' W 011°58'1812.5
2016-Jul-17 00:07N 37°55' W 011°52'1112.7
2016-Jul-16 23:16N 38°06' W 011°49'912.7
2016-Jul-16 22:33N 38°14' W 011°46'1312.5
2016-Jul-16 21:32N 38°27' W 011°41'1412.2
2016-Jul-16 20:22N 38°40' W 011°36'1012.1
2016-Jul-16 19:33N 38°50' W 011°32'1212.4
2016-Jul-16 18:33N 39°01' W 011°27'1312.5
2016-Jul-16 17:33N 39°14' W 011°24'1212.6
2016-Jul-16 16:33N 39°26' W 011°21'1212.1
2016-Jul-16 15:33N 39°38' W 011°17'1211.8
2016-Jul-16 14:33N 39°49' W 011°12'1212.2
2016-Jul-16 13:33N 40°01' W 011°08'1212.0
2016-Jul-16 12:33N 40°12' W 011°04'1211.7
2016-Jul-16 11:33N 40°24' W 011°00'1212.5
2016-Jul-16 10:33N 40°36' W 010°56'2612.3
2016-Jul-16 08:26N 41°01' W 010°47'1612.5
2016-Jul-16 07:11N 41°16' W 010°42'812.3
2016-Jul-16 06:33N 41°23' W 010°39'42211.1
2016-Jul-14 16:33N 46°28' W 003°53'2914.3
2016-Jul-14 14:33N 46°44' W 003°19'1818.0
2016-Jul-14 13:33N 46°54' W 002°57'1616.5
2016-Jul-14 12:33N 47°02' W 002°36'1111.1
2016-Jul-14 11:32N 47°08' W 002°21'9 9.4
2016-Jul-14 10:33N 47°15' W 002°13'5 4.5
2016-Jul-14 09:31N 47°18' W 002°08'0 0.0
2016-Jul-14 03:25N 47°18' W 002°08'0 0.0
2016-Jul-14 02:07N 47°18' W 002°08'0 0.0
2016-Jul-13 23:25N 47°18' W 002°08'0 0.0
2016-Jul-13 22:25N 47°18' W 002°08'0 0.0
2016-Jul-13 21:25N 47°18' W 002°08'9 0.5
2016-Jul-13 04:33N 47°12' W 002°17'8 8.2
2016-Jul-13 03:33N 47°05' W 002°25'8 7.5
2016-Jul-13 02:33N 47°01' W 002°34'1515.1
2016-Jul-13 01:33N 46°53' W 002°53'1616.0
2016-Jul-13 00:33N 46°43' W 003°11'59016.7
2016-Jul-11 13:11N 38°49' W 011°10'1117.6
2016-Jul-11 12:33N 38°39' W 011°14'1817.8
2016-Jul-11 11:32N 38°21' W 011°20'1817.7
2016-Jul-11 10:33N 38°04' W 011°26'2117.3
2016-Jul-11 09:22N 37°45' W 011°34'1517.3
2016-Jul-11 08:30N 37°30' W 011°39'1717.6
2016-Jul-11 07:33N 37°14' W 011°45'1817.8
2016-Jul-11 06:33N 36°57' W 011°51'35517.4
2016-Jul-10 10:08N 31°16' W 013°50'1118.1
2016-Jul-10 09:32N 31°06' W 013°54'1818.3
2016-Jul-10 08:33N 30°48' W 013°60'1818.2
2016-Jul-10 07:33N 30°31' W 014°05'1818.2
2016-Jul-10 06:33N 30°13' W 014°11'1817.9
2016-Jul-10 05:33N 29°56' W 014°17'1817.9
2016-Jul-10 04:34N 29°39' W 014°23'1817.8
2016-Jul-10 03:32N 29°21' W 014°29'1717.8
2016-Jul-10 02:34N 29°05' W 014°34'1817.8
2016-Jul-10 01:33N 28°48' W 014°40'1817.8
2016-Jul-10 00:33N 28°30' W 014°45'1717.2
2016-Jul-09 23:34N 28°14' W 014°52'1717.3
2016-Jul-09 22:34N 27°58' W 014°58'1717.0
2016-Jul-09 21:33N 27°42' W 015°05'  

Dump ship's entire track history